sensor_id;sensor_type;location;lat;lon;timestamp;P1;durP1;ratioP1;P2;durP2;ratioP2
16693;SDS011;39538;52.196;9.892;2022-09-03T00:00:41;111.07;;;107.03;;
16693;SDS011;39538;52.196;9.892;2022-09-03T00:03:12;103.97;;;100.33;;
16693;SDS011;39538;52.196;9.892;2022-09-03T00:05:46;89.53;;;86.87;;
16693;SDS011;39538;52.196;9.892;2022-09-03T00:08:18;82.53;;;79.93;;
16693;SDS011;39538;52.196;9.892;2022-09-03T00:10:51;77.67;;;75.27;;
16693;SDS011;39538;52.196;9.892;2022-09-03T00:13:23;74.73;;;72.67;;
16693;SDS011;39538;52.196;9.892;2022-09-03T00:15:54;89.50;;;86.77;;
16693;SDS011;39538;52.196;9.892;2022-09-03T00:18:24;83.47;;;81.03;;
16693;SDS011;39538;52.196;9.892;2022-09-03T00:20:56;94.63;;;91.47;;
16693;SDS011;39538;52.196;9.892;2022-09-03T00:23:34;102.80;;;99.27;;
16693;SDS011;39538;52.196;9.892;2022-09-03T00:26:13;93.80;;;90.83;;
16693;SDS011;39538;52.196;9.892;2022-09-03T00:28:44;99.73;;;96.33;;
16693;SDS011;39538;52.196;9.892;2022-09-03T00:31:15;104.87;;;101.40;;
16693;SDS011;39538;52.196;9.892;2022-09-03T00:33:48;99.97;;;96.77;;
16693;SDS011;39538;52.196;9.892;2022-09-03T00:36:22;108.80;;;105.17;;
16693;SDS011;39538;52.196;9.892;2022-09-03T00:38:54;103.47;;;100.07;;
16693;SDS011;39538;52.196;9.892;2022-09-03T00:41:24;94.83;;;91.63;;
16693;SDS011;39538;52.196;9.892;2022-09-03T00:44:08;90.67;;;88.07;;
16693;SDS011;39538;52.196;9.892;2022-09-03T00:46:51;95.23;;;92.33;;
16693;SDS011;39538;52.196;9.892;2022-09-03T00:49:27;87.53;;;84.50;;
16693;SDS011;39538;52.196;9.892;2022-09-03T00:52:04;83.37;;;81.03;;
16693;SDS011;39538;52.196;9.892;2022-09-03T00:54:42;81.10;;;78.70;;
16693;SDS011;39538;52.196;9.892;2022-09-03T00:57:21;78.17;;;76.07;;
16693;SDS011;39538;52.196;9.892;2022-09-03T01:00:03;77.57;;;75.00;;
16693;SDS011;39538;52.196;9.892;2022-09-03T01:02:35;78.47;;;76.20;;
16693;SDS011;39538;52.196;9.892;2022-09-03T01:05:20;73.70;;;71.50;;
16693;SDS011;39538;52.196;9.892;2022-09-03T01:08:02;71.67;;;69.40;;
16693;SDS011;39538;52.196;9.892;2022-09-03T01:10:38;75.90;;;74.00;;
16693;SDS011;39538;52.196;9.892;2022-09-03T01:13:12;74.47;;;72.50;;
16693;SDS011;39538;52.196;9.892;2022-09-03T01:15:44;78.87;;;76.13;;
16693;SDS011;39538;52.196;9.892;2022-09-03T01:18:23;80.90;;;78.70;;
16693;SDS011;39538;52.196;9.892;2022-09-03T01:21:04;85.77;;;83.37;;
16693;SDS011;39538;52.196;9.892;2022-09-03T01:26:51;91.50;;;88.80;;
16693;SDS011;39538;52.196;9.892;2022-09-03T01:29:30;104.13;;;100.47;;
16693;SDS011;39538;52.196;9.892;2022-09-03T01:32:03;104.33;;;100.87;;
16693;SDS011;39538;52.196;9.892;2022-09-03T01:34:42;116.60;;;111.97;;
16693;SDS011;39538;52.196;9.892;2022-09-03T01:37:17;118.00;;;113.70;;
16693;SDS011;39538;52.196;9.892;2022-09-03T01:39:54;122.90;;;118.33;;
16693;SDS011;39538;52.196;9.892;2022-09-03T01:42:31;122.40;;;118.03;;
16693;SDS011;39538;52.196;9.892;2022-09-03T01:45:11;133.20;;;127.53;;
16693;SDS011;39538;52.196;9.892;2022-09-03T01:47:48;134.03;;;129.03;;
16693;SDS011;39538;52.196;9.892;2022-09-03T01:50:28;146.97;;;140.93;;
16693;SDS011;39538;52.196;9.892;2022-09-03T01:53:04;135.67;;;130.90;;
16693;SDS011;39538;52.196;9.892;2022-09-03T01:55:38;136.50;;;131.23;;
16693;SDS011;39538;52.196;9.892;2022-09-03T01:58:15;124.77;;;120.33;;
16693;SDS011;39538;52.196;9.892;2022-09-03T02:00:48;124.93;;;120.20;;
16693;SDS011;39538;52.196;9.892;2022-09-03T02:03:21;124.40;;;119.73;;
16693;SDS011;39538;52.196;9.892;2022-09-03T02:05:49;121.07;;;116.23;;
16693;SDS011;39538;52.196;9.892;2022-09-03T02:08:17;116.23;;;111.90;;
16693;SDS011;39538;52.196;9.892;2022-09-03T02:10:44;100.17;;;96.73;;
16693;SDS011;39538;52.196;9.892;2022-09-03T02:13:15;98.60;;;95.00;;
16693;SDS011;39538;52.196;9.892;2022-09-03T02:15:48;95.67;;;92.53;;
16693;SDS011;39538;52.196;9.892;2022-09-03T02:18:17;101.43;;;98.10;;
16693;SDS011;39538;52.196;9.892;2022-09-03T02:20:47;99.00;;;95.37;;
16693;SDS011;39538;52.196;9.892;2022-09-03T02:23:15;95.83;;;92.80;;
16693;SDS011;39538;52.196;9.892;2022-09-03T02:25:43;98.27;;;94.90;;
16693;SDS011;39538;52.196;9.892;2022-09-03T02:28:13;99.17;;;95.97;;
16693;SDS011;39538;52.196;9.892;2022-09-03T02:30:40;99.47;;;95.87;;
16693;SDS011;39538;52.196;9.892;2022-09-03T02:33:08;97.07;;;93.67;;
16693;SDS011;39538;52.196;9.892;2022-09-03T02:35:34;100.43;;;97.07;;
16693;SDS011;39538;52.196;9.892;2022-09-03T02:38:08;98.83;;;95.53;;
16693;SDS011;39538;52.196;9.892;2022-09-03T02:40:35;96.27;;;93.07;;
16693;SDS011;39538;52.196;9.892;2022-09-03T02:43:02;100.60;;;97.00;;
16693;SDS011;39538;52.196;9.892;2022-09-03T02:45:31;103.13;;;98.93;;
16693;SDS011;39538;52.196;9.892;2022-09-03T02:47:58;104.47;;;100.40;;
16693;SDS011;39538;52.196;9.892;2022-09-03T02:50:26;93.73;;;90.57;;
16693;SDS011;39538;52.196;9.892;2022-09-03T02:52:53;93.73;;;90.73;;
16693;SDS011;39538;52.196;9.892;2022-09-03T02:55:19;97.17;;;93.77;;
16693;SDS011;39538;52.196;9.892;2022-09-03T02:57:46;101.97;;;98.60;;
16693;SDS011;39538;52.196;9.892;2022-09-03T03:00:13;115.63;;;111.37;;
16693;SDS011;39538;52.196;9.892;2022-09-03T03:02:40;119.50;;;115.40;;
16693;SDS011;39538;52.196;9.892;2022-09-03T03:05:07;123.60;;;119.10;;
16693;SDS011;39538;52.196;9.892;2022-09-03T03:07:41;129.57;;;124.53;;
16693;SDS011;39538;52.196;9.892;2022-09-03T03:10:08;125.13;;;120.43;;
16693;SDS011;39538;52.196;9.892;2022-09-03T03:12:34;150.43;;;144.23;;
16693;SDS011;39538;52.196;9.892;2022-09-03T03:15:01;154.63;;;148.47;;
16693;SDS011;39538;52.196;9.892;2022-09-03T03:17:28;141.20;;;135.73;;
16693;SDS011;39538;52.196;9.892;2022-09-03T03:19:55;153.10;;;146.63;;
16693;SDS011;39538;52.196;9.892;2022-09-03T03:22:21;150.50;;;144.30;;
16693;SDS011;39538;52.196;9.892;2022-09-03T03:24:49;157.93;;;151.43;;
16693;SDS011;39538;52.196;9.892;2022-09-03T03:27:16;150.63;;;143.87;;
16693;SDS011;39538;52.196;9.892;2022-09-03T03:29:43;160.77;;;153.83;;
16693;SDS011;39538;52.196;9.892;2022-09-03T03:32:09;151.20;;;144.63;;
16693;SDS011;39538;52.196;9.892;2022-09-03T03:34:35;156.77;;;149.97;;
16693;SDS011;39538;52.196;9.892;2022-09-03T03:37:03;146.80;;;140.77;;
16693;SDS011;39538;52.196;9.892;2022-09-03T03:39:30;144.53;;;138.53;;
16693;SDS011;39538;52.196;9.892;2022-09-03T03:41:58;149.30;;;143.17;;
16693;SDS011;39538;52.196;9.892;2022-09-03T03:44:24;140.43;;;134.83;;
16693;SDS011;39538;52.196;9.892;2022-09-03T03:46:50;150.67;;;144.50;;
16693;SDS011;39538;52.196;9.892;2022-09-03T03:49:17;153.07;;;146.83;;
16693;SDS011;39538;52.196;9.892;2022-09-03T03:51:43;142.77;;;137.00;;
16693;SDS011;39538;52.196;9.892;2022-09-03T03:54:10;143.43;;;137.50;;
16693;SDS011;39538;52.196;9.892;2022-09-03T03:56:36;137.10;;;131.47;;
16693;SDS011;39538;52.196;9.892;2022-09-03T03:59:04;129.47;;;124.50;;
16693;SDS011;39538;52.196;9.892;2022-09-03T04:01:30;140.80;;;134.87;;
16693;SDS011;39538;52.196;9.892;2022-09-03T04:03:57;135.57;;;130.40;;
16693;SDS011;39538;52.196;9.892;2022-09-03T04:06:24;138.30;;;133.00;;
16693;SDS011;39538;52.196;9.892;2022-09-03T04:08:51;139.23;;;133.33;;
16693;SDS011;39538;52.196;9.892;2022-09-03T04:11:19;142.20;;;136.67;;
16693;SDS011;39538;52.196;9.892;2022-09-03T04:13:47;146.60;;;140.83;;
16693;SDS011;39538;52.196;9.892;2022-09-03T04:16:16;149.90;;;144.03;;
16693;SDS011;39538;52.196;9.892;2022-09-03T04:18:43;151.67;;;145.47;;
16693;SDS011;39538;52.196;9.892;2022-09-03T04:21:12;143.80;;;138.00;;
16693;SDS011;39538;52.196;9.892;2022-09-03T04:23:40;164.93;;;158.07;;
16693;SDS011;39538;52.196;9.892;2022-09-03T04:26:08;153.60;;;147.13;;
16693;SDS011;39538;52.196;9.892;2022-09-03T04:28:36;173.70;;;166.03;;
16693;SDS011;39538;52.196;9.892;2022-09-03T04:31:03;168.00;;;160.80;;
16693;SDS011;39538;52.196;9.892;2022-09-03T04:33:32;150.50;;;144.27;;
16693;SDS011;39538;52.196;9.892;2022-09-03T04:36:03;157.83;;;151.20;;
16693;SDS011;39538;52.196;9.892;2022-09-03T04:38:31;164.33;;;156.97;;
16693;SDS011;39538;52.196;9.892;2022-09-03T04:40:58;147.73;;;141.47;;
16693;SDS011;39538;52.196;9.892;2022-09-03T04:43:25;163.67;;;156.93;;
16693;SDS011;39538;52.196;9.892;2022-09-03T04:45:54;142.80;;;136.93;;
16693;SDS011;39538;52.196;9.892;2022-09-03T04:48:21;155.67;;;148.57;;
16693;SDS011;39538;52.196;9.892;2022-09-03T04:50:49;140.07;;;134.60;;
16693;SDS011;39538;52.196;9.892;2022-09-03T04:53:15;137.63;;;132.17;;
16693;SDS011;39538;52.196;9.892;2022-09-03T04:55:42;148.00;;;142.00;;
16693;SDS011;39538;52.196;9.892;2022-09-03T04:58:08;144.73;;;138.70;;
16693;SDS011;39538;52.196;9.892;2022-09-03T05:00:35;146.57;;;140.47;;
16693;SDS011;39538;52.196;9.892;2022-09-03T05:03:01;151.80;;;145.33;;
16693;SDS011;39538;52.196;9.892;2022-09-03T05:05:29;141.70;;;135.47;;
16693;SDS011;39538;52.196;9.892;2022-09-03T05:07:58;148.63;;;142.57;;
16693;SDS011;39538;52.196;9.892;2022-09-03T05:10:25;152.10;;;145.73;;
16693;SDS011;39538;52.196;9.892;2022-09-03T05:12:56;145.47;;;139.60;;
16693;SDS011;39538;52.196;9.892;2022-09-03T05:15:24;149.47;;;143.33;;
16693;SDS011;39538;52.196;9.892;2022-09-03T05:17:54;147.33;;;141.43;;
16693;SDS011;39538;52.196;9.892;2022-09-03T05:20:21;154.70;;;147.97;;
16693;SDS011;39538;52.196;9.892;2022-09-03T05:22:47;151.60;;;145.50;;
16693;SDS011;39538;52.196;9.892;2022-09-03T05:25:15;146.33;;;140.37;;
16693;SDS011;39538;52.196;9.892;2022-09-03T05:27:41;156.10;;;149.77;;
16693;SDS011;39538;52.196;9.892;2022-09-03T05:30:08;155.93;;;149.37;;
16693;SDS011;39538;52.196;9.892;2022-09-03T05:32:35;151.67;;;145.40;;
16693;SDS011;39538;52.196;9.892;2022-09-03T05:35:02;149.97;;;143.73;;
16693;SDS011;39538;52.196;9.892;2022-09-03T05:37:29;158.23;;;151.63;;
16693;SDS011;39538;52.196;9.892;2022-09-03T05:39:55;152.67;;;146.53;;
16693;SDS011;39538;52.196;9.892;2022-09-03T05:42:23;153.80;;;147.50;;
16693;SDS011;39538;52.196;9.892;2022-09-03T05:44:52;148.33;;;142.00;;
16693;SDS011;39538;52.196;9.892;2022-09-03T05:47:18;159.50;;;152.77;;
16693;SDS011;39538;52.196;9.892;2022-09-03T05:49:45;147.97;;;141.23;;
16693;SDS011;39538;52.196;9.892;2022-09-03T05:52:11;152.43;;;146.20;;
16693;SDS011;39538;52.196;9.892;2022-09-03T05:54:38;173.53;;;166.27;;
16693;SDS011;39538;52.196;9.892;2022-09-03T05:57:04;165.30;;;158.30;;
16693;SDS011;39538;52.196;9.892;2022-09-03T05:59:32;155.43;;;148.33;;
16693;SDS011;39538;52.196;9.892;2022-09-03T06:01:58;160.17;;;153.23;;
16693;SDS011;39538;52.196;9.892;2022-09-03T06:04:25;151.10;;;144.60;;
16693;SDS011;39538;52.196;9.892;2022-09-03T06:06:51;148.70;;;142.60;;
16693;SDS011;39538;52.196;9.892;2022-09-03T06:09:18;156.70;;;149.93;;
16693;SDS011;39538;52.196;9.892;2022-09-03T06:11:46;146.70;;;140.80;;
16693;SDS011;39538;52.196;9.892;2022-09-03T06:14:14;130.70;;;125.83;;
16693;SDS011;39538;52.196;9.892;2022-09-03T06:16:43;124.87;;;120.20;;
16693;SDS011;39538;52.196;9.892;2022-09-03T06:19:12;130.67;;;125.47;;
16693;SDS011;39538;52.196;9.892;2022-09-03T06:21:39;123.63;;;118.87;;
16693;SDS011;39538;52.196;9.892;2022-09-03T06:24:08;143.63;;;137.67;;
16693;SDS011;39538;52.196;9.892;2022-09-03T06:26:35;138.03;;;132.53;;
16693;SDS011;39538;52.196;9.892;2022-09-03T06:29:02;164.87;;;157.60;;
16693;SDS011;39538;52.196;9.892;2022-09-03T06:31:28;159.17;;;152.63;;
16693;SDS011;39538;52.196;9.892;2022-09-03T06:33:56;173.53;;;166.00;;
16693;SDS011;39538;52.196;9.892;2022-09-03T06:36:23;146.83;;;140.90;;
16693;SDS011;39538;52.196;9.892;2022-09-03T06:38:50;130.40;;;125.60;;
16693;SDS011;39538;52.196;9.892;2022-09-03T06:41:19;127.67;;;122.93;;
16693;SDS011;39538;52.196;9.892;2022-09-03T06:43:49;130.30;;;124.97;;
16693;SDS011;39538;52.196;9.892;2022-09-03T06:46:18;135.17;;;129.37;;
16693;SDS011;39538;52.196;9.892;2022-09-03T06:48:45;159.73;;;152.93;;
16693;SDS011;39538;52.196;9.892;2022-09-03T06:51:14;178.90;;;171.47;;
16693;SDS011;39538;52.196;9.892;2022-09-03T06:53:41;184.17;;;176.20;;
16693;SDS011;39538;52.196;9.892;2022-09-03T06:56:10;194.73;;;186.80;;
16693;SDS011;39538;52.196;9.892;2022-09-03T06:58:38;184.67;;;177.27;;
16693;SDS011;39538;52.196;9.892;2022-09-03T07:01:08;183.07;;;175.60;;
16693;SDS011;39538;52.196;9.892;2022-09-03T07:03:37;183.50;;;175.63;;
16693;SDS011;39538;52.196;9.892;2022-09-03T07:06:05;155.17;;;149.00;;
16693;SDS011;39538;52.196;9.892;2022-09-03T07:08:34;179.73;;;172.47;;
16693;SDS011;39538;52.196;9.892;2022-09-03T07:11:01;113.63;;;109.33;;
16693;SDS011;39538;52.196;9.892;2022-09-03T07:13:33;105.43;;;101.63;;
16693;SDS011;39538;52.196;9.892;2022-09-03T07:15:59;135.30;;;129.70;;
16693;SDS011;39538;52.196;9.892;2022-09-03T07:18:26;141.63;;;136.33;;
16693;SDS011;39538;52.196;9.892;2022-09-03T07:20:56;150.60;;;145.13;;
16693;SDS011;39538;52.196;9.892;2022-09-03T07:23:24;166.47;;;160.17;;
16693;SDS011;39538;52.196;9.892;2022-09-03T07:25:53;154.10;;;148.30;;
16693;SDS011;39538;52.196;9.892;2022-09-03T07:28:20;159.13;;;153.27;;
16693;SDS011;39538;52.196;9.892;2022-09-03T07:30:47;162.43;;;156.13;;
16693;SDS011;39538;52.196;9.892;2022-09-03T07:33:13;148.30;;;142.67;;
16693;SDS011;39538;52.196;9.892;2022-09-03T07:35:40;135.10;;;129.83;;
16693;SDS011;39538;52.196;9.892;2022-09-03T07:38:06;131.93;;;126.87;;
16693;SDS011;39538;52.196;9.892;2022-09-03T07:40:34;157.13;;;150.93;;
16693;SDS011;39538;52.196;9.892;2022-09-03T07:43:01;160.33;;;154.20;;
16693;SDS011;39538;52.196;9.892;2022-09-03T07:45:28;172.40;;;165.73;;
16693;SDS011;39538;52.196;9.892;2022-09-03T07:47:55;160.23;;;153.77;;
16693;SDS011;39538;52.196;9.892;2022-09-03T07:50:21;171.60;;;164.77;;
16693;SDS011;39538;52.196;9.892;2022-09-03T07:52:48;177.43;;;170.30;;
16693;SDS011;39538;52.196;9.892;2022-09-03T07:55:15;187.37;;;179.87;;
16693;SDS011;39538;52.196;9.892;2022-09-03T07:57:41;175.50;;;167.87;;
16693;SDS011;39538;52.196;9.892;2022-09-03T08:00:10;175.13;;;167.80;;
16693;SDS011;39538;52.196;9.892;2022-09-03T08:02:37;175.87;;;168.67;;
16693;SDS011;39538;52.196;9.892;2022-09-03T08:05:04;173.50;;;166.37;;
16693;SDS011;39538;52.196;9.892;2022-09-03T08:07:31;169.47;;;162.80;;
16693;SDS011;39538;52.196;9.892;2022-09-03T08:09:58;159.30;;;152.90;;
16693;SDS011;39538;52.196;9.892;2022-09-03T08:12:25;169.40;;;162.60;;
16693;SDS011;39538;52.196;9.892;2022-09-03T08:14:51;148.17;;;142.33;;
16693;SDS011;39538;52.196;9.892;2022-09-03T08:17:20;151.83;;;145.87;;
16693;SDS011;39538;52.196;9.892;2022-09-03T08:19:46;153.20;;;147.10;;
16693;SDS011;39538;52.196;9.892;2022-09-03T08:22:12;144.37;;;138.67;;
16693;SDS011;39538;52.196;9.892;2022-09-03T08:24:39;138.97;;;133.40;;
16693;SDS011;39538;52.196;9.892;2022-09-03T08:27:06;130.77;;;125.77;;
16693;SDS011;39538;52.196;9.892;2022-09-03T08:29:33;136.57;;;131.10;;
16693;SDS011;39538;52.196;9.892;2022-09-03T08:31:59;137.23;;;131.90;;
16693;SDS011;39538;52.196;9.892;2022-09-03T08:34:27;142.93;;;137.30;;
16693;SDS011;39538;52.196;9.892;2022-09-03T08:36:53;139.90;;;134.30;;
16693;SDS011;39538;52.196;9.892;2022-09-03T08:39:20;126.23;;;121.27;;
16693;SDS011;39538;52.196;9.892;2022-09-03T08:44:46;97.67;;;94.47;;
16693;SDS011;39538;52.196;9.892;2022-09-03T08:47:16;109.20;;;104.33;;
16693;SDS011;39538;52.196;9.892;2022-09-03T08:49:49;112.03;;;108.07;;
16693;SDS011;39538;52.196;9.892;2022-09-03T08:52:21;130.43;;;125.63;;
16693;SDS011;39538;52.196;9.892;2022-09-03T08:54:58;140.27;;;134.33;;
16693;SDS011;39538;52.196;9.892;2022-09-03T08:57:36;142.80;;;136.37;;
16693;SDS011;39538;52.196;9.892;2022-09-03T09:00:07;149.37;;;142.63;;
16693;SDS011;39538;52.196;9.892;2022-09-03T09:02:35;141.37;;;135.50;;
16693;SDS011;39538;52.196;9.892;2022-09-03T09:05:16;141.57;;;135.43;;
16693;SDS011;39538;52.196;9.892;2022-09-03T09:07:47;149.57;;;142.97;;
16693;SDS011;39538;52.196;9.892;2022-09-03T09:10:19;170.13;;;162.43;;
16693;SDS011;39538;52.196;9.892;2022-09-03T09:12:57;143.73;;;137.63;;
16693;SDS011;39538;52.196;9.892;2022-09-03T09:15:36;137.87;;;131.97;;
16693;SDS011;39538;52.196;9.892;2022-09-03T09:18:09;137.53;;;131.67;;
16693;SDS011;39538;52.196;9.892;2022-09-03T09:20:47;134.13;;;128.73;;
16693;SDS011;39538;52.196;9.892;2022-09-03T09:23:17;148.47;;;142.43;;
16693;SDS011;39538;52.196;9.892;2022-09-03T09:25:48;158.63;;;151.87;;
16693;SDS011;39538;52.196;9.892;2022-09-03T09:28:17;159.97;;;153.37;;
16693;SDS011;39538;52.196;9.892;2022-09-03T09:30:45;167.73;;;160.97;;
16693;SDS011;39538;52.196;9.892;2022-09-03T09:33:13;171.50;;;164.23;;
16693;SDS011;39538;52.196;9.892;2022-09-03T09:35:40;145.73;;;139.63;;
16693;SDS011;39538;52.196;9.892;2022-09-03T09:38:08;135.48;;;129.85;;
16693;SDS011;39538;52.196;9.892;2022-09-03T09:40:37;137.73;;;132.00;;
16693;SDS011;39538;52.196;9.892;2022-09-03T09:43:07;135.83;;;130.30;;
16693;SDS011;39538;52.196;9.892;2022-09-03T09:45:36;136.17;;;130.50;;
16693;SDS011;39538;52.196;9.892;2022-09-03T09:48:07;124.77;;;119.87;;
16693;SDS011;39538;52.196;9.892;2022-09-03T09:50:38;123.57;;;118.77;;
16693;SDS011;39538;52.196;9.892;2022-09-03T09:53:06;132.05;;;125.93;;
16693;SDS011;39538;52.196;9.892;2022-09-03T09:55:49;112.93;;;108.37;;
16693;SDS011;39538;52.196;9.892;2022-09-03T09:58:18;115.17;;;110.70;;
16693;SDS011;39538;52.196;9.892;2022-09-03T10:01:00;118.77;;;114.33;;
16693;SDS011;39538;52.196;9.892;2022-09-03T10:03:31;114.33;;;110.17;;
16693;SDS011;39538;52.196;9.892;2022-09-03T10:06:01;116.10;;;111.60;;
16693;SDS011;39538;52.196;9.892;2022-09-03T10:08:51;116.70;;;112.70;;
16693;SDS011;39538;52.196;9.892;2022-09-03T10:11:19;128.23;;;123.53;;
16693;SDS011;39538;52.196;9.892;2022-09-03T10:13:49;114.90;;;111.03;;
16693;SDS011;39538;52.196;9.892;2022-09-03T10:16:21;103.77;;;100.47;;
16693;SDS011;39538;52.196;9.892;2022-09-03T10:18:52;110.87;;;107.13;;
16693;SDS011;39538;52.196;9.892;2022-09-03T10:21:28;107.60;;;103.80;;
16693;SDS011;39538;52.196;9.892;2022-09-03T10:23:58;100.35;;;97.28;;
16693;SDS011;39538;52.196;9.892;2022-09-03T10:26:32;128.30;;;123.33;;
16693;SDS011;39538;52.196;9.892;2022-09-03T10:29:02;102.28;;;98.93;;
16693;SDS011;39538;52.196;9.892;2022-09-03T10:31:33;103.78;;;100.32;;
16693;SDS011;39538;52.196;9.892;2022-09-03T10:34:08;112.68;;;108.97;;
16693;SDS011;39538;52.196;9.892;2022-09-03T10:36:41;111.07;;;107.03;;
16693;SDS011;39538;52.196;9.892;2022-09-03T10:39:16;104.65;;;101.32;;
16693;SDS011;39538;52.196;9.892;2022-09-03T10:41:52;110.53;;;105.70;;
16693;SDS011;39538;52.196;9.892;2022-09-03T10:47:29;98.25;;;95.20;;
16693;SDS011;39538;52.196;9.892;2022-09-03T10:50:07;102.80;;;98.70;;
16693;SDS011;39538;52.196;9.892;2022-09-03T10:52:43;105.53;;;101.63;;
16693;SDS011;39538;52.196;9.892;2022-09-03T10:55:26;104.18;;;100.95;;
16693;SDS011;39538;52.196;9.892;2022-09-03T10:58:05;103.80;;;100.68;;
16693;SDS011;39538;52.196;9.892;2022-09-03T11:00:46;100.32;;;97.28;;
16693;SDS011;39538;52.196;9.892;2022-09-03T11:03:34;103.80;;;100.50;;
16693;SDS011;39538;52.196;9.892;2022-09-03T11:06:14;97.85;;;94.88;;
16693;SDS011;39538;52.196;9.892;2022-09-03T11:08:46;103.88;;;100.28;;
16693;SDS011;39538;52.196;9.892;2022-09-03T11:11:19;107.90;;;104.50;;
16693;SDS011;39538;52.196;9.892;2022-09-03T11:13:52;105.00;;;101.50;;
16693;SDS011;39538;52.196;9.892;2022-09-03T11:16:24;106.68;;;103.07;;
16693;SDS011;39538;52.196;9.892;2022-09-03T11:18:56;101.20;;;97.60;;
16693;SDS011;39538;52.196;9.892;2022-09-03T11:21:27;95.18;;;92.03;;
16693;SDS011;39538;52.196;9.892;2022-09-03T11:24:00;107.68;;;103.95;;
16693;SDS011;39538;52.196;9.892;2022-09-03T11:26:32;101.45;;;97.90;;
16693;SDS011;39538;52.196;9.892;2022-09-03T11:29:03;104.90;;;101.30;;
16693;SDS011;39538;52.196;9.892;2022-09-03T11:31:48;95.70;;;92.50;;
16693;SDS011;39538;52.196;9.892;2022-09-03T11:34:26;92.22;;;89.32;;
16693;SDS011;39538;52.196;9.892;2022-09-03T11:37:03;100.72;;;97.40;;
16693;SDS011;39538;52.196;9.892;2022-09-03T11:39:33;97.60;;;94.35;;
16693;SDS011;39538;52.196;9.892;2022-09-03T11:42:01;87.88;;;84.93;;
16693;SDS011;39538;52.196;9.892;2022-09-03T11:44:36;88.78;;;85.65;;
16693;SDS011;39538;52.196;9.892;2022-09-03T11:47:12;93.72;;;90.25;;
16693;SDS011;39538;52.196;9.892;2022-09-03T11:49:43;84.45;;;81.35;;
16693;SDS011;39538;52.196;9.892;2022-09-03T11:52:11;101.72;;;98.15;;
16693;SDS011;39538;52.196;9.892;2022-09-03T11:54:42;93.25;;;89.60;;
16693;SDS011;39538;52.196;9.892;2022-09-03T11:57:11;92.25;;;89.20;;
16693;SDS011;39538;52.196;9.892;2022-09-03T11:59:41;95.07;;;91.25;;
16693;SDS011;39538;52.196;9.892;2022-09-03T12:02:12;90.75;;;87.88;;
16693;SDS011;39538;52.196;9.892;2022-09-03T12:04:50;86.32;;;83.25;;
16693;SDS011;39538;52.196;9.892;2022-09-03T12:07:37;85.47;;;82.70;;
16693;SDS011;39538;52.196;9.892;2022-09-03T12:10:21;78.13;;;75.72;;
16693;SDS011;39538;52.196;9.892;2022-09-03T12:12:59;88.45;;;85.60;;
16693;SDS011;39538;52.196;9.892;2022-09-03T12:15:44;88.32;;;85.65;;
16693;SDS011;39538;52.196;9.892;2022-09-03T12:18:38;83.93;;;81.17;;
16693;SDS011;39538;52.196;9.892;2022-09-03T12:21:07;81.88;;;79.63;;
16693;SDS011;39538;52.196;9.892;2022-09-03T12:23:39;81.20;;;78.30;;
16693;SDS011;39538;52.196;9.892;2022-09-03T12:26:07;89.05;;;86.15;;
16693;SDS011;39538;52.196;9.892;2022-09-03T12:28:39;87.72;;;85.25;;
16693;SDS011;39538;52.196;9.892;2022-09-03T12:31:08;87.00;;;84.32;;
16693;SDS011;39538;52.196;9.892;2022-09-03T12:33:45;84.03;;;81.30;;
16693;SDS011;39538;52.196;9.892;2022-09-03T12:36:13;81.72;;;79.25;;
16693;SDS011;39538;52.196;9.892;2022-09-03T12:38:40;88.65;;;86.05;;
16693;SDS011;39538;52.196;9.892;2022-09-03T12:41:18;80.68;;;78.38;;
16693;SDS011;39538;52.196;9.892;2022-09-03T12:43:48;88.57;;;85.73;;
16693;SDS011;39538;52.196;9.892;2022-09-03T12:46:17;85.30;;;82.65;;
16693;SDS011;39538;52.196;9.892;2022-09-03T12:48:52;86.13;;;83.25;;
16693;SDS011;39538;52.196;9.892;2022-09-03T12:51:19;86.43;;;83.93;;
16693;SDS011;39538;52.196;9.892;2022-09-03T12:53:46;76.78;;;74.47;;
16693;SDS011;39538;52.196;9.892;2022-09-03T12:56:15;86.95;;;84.25;;
16693;SDS011;39538;52.196;9.892;2022-09-03T12:58:44;79.88;;;77.40;;
16693;SDS011;39538;52.196;9.892;2022-09-03T13:01:19;81.30;;;78.97;;
16693;SDS011;39538;52.196;9.892;2022-09-03T13:03:49;79.40;;;77.20;;
16693;SDS011;39538;52.196;9.892;2022-09-03T13:06:22;93.00;;;89.80;;
16693;SDS011;39538;52.196;9.892;2022-09-03T13:08:51;84.70;;;82.20;;
16693;SDS011;39538;52.196;9.892;2022-09-03T13:11:22;82.50;;;79.60;;
16693;SDS011;39538;52.196;9.892;2022-09-03T13:13:51;82.50;;;80.23;;
16693;SDS011;39538;52.196;9.892;2022-09-03T13:16:26;79.43;;;76.93;;
16693;SDS011;39538;52.196;9.892;2022-09-03T13:19:07;73.80;;;71.87;;
16693;SDS011;39538;52.196;9.892;2022-09-03T13:21:43;78.00;;;75.87;;
16693;SDS011;39538;52.196;9.892;2022-09-03T13:24:23;80.70;;;78.17;;
16693;SDS011;39538;52.196;9.892;2022-09-03T13:27:06;80.90;;;78.50;;
16693;SDS011;39538;52.196;9.892;2022-09-03T13:29:46;72.77;;;70.83;;
16693;SDS011;39538;52.196;9.892;2022-09-03T13:32:29;74.23;;;72.13;;
16693;SDS011;39538;52.196;9.892;2022-09-03T13:35:03;74.57;;;72.33;;
16693;SDS011;39538;52.196;9.892;2022-09-03T13:37:36;72.10;;;70.13;;
16693;SDS011;39538;52.196;9.892;2022-09-03T13:40:10;79.03;;;76.17;;
16693;SDS011;39538;52.196;9.892;2022-09-03T13:42:41;71.37;;;69.37;;
16693;SDS011;39538;52.196;9.892;2022-09-03T13:45:13;78.83;;;76.63;;
16693;SDS011;39538;52.196;9.892;2022-09-03T13:47:48;76.43;;;73.70;;
16693;SDS011;39538;52.196;9.892;2022-09-03T13:50:40;73.83;;;71.77;;
16693;SDS011;39538;52.196;9.892;2022-09-03T13:53:13;73.57;;;71.43;;
16693;SDS011;39538;52.196;9.892;2022-09-03T13:55:44;72.13;;;70.03;;
16693;SDS011;39538;52.196;9.892;2022-09-03T13:58:17;68.33;;;66.57;;
16693;SDS011;39538;52.196;9.892;2022-09-03T14:00:49;72.50;;;70.67;;
16693;SDS011;39538;52.196;9.892;2022-09-03T14:03:22;122.53;;;118.27;;
16693;SDS011;39538;52.196;9.892;2022-09-03T14:06:01;64.13;;;62.13;;
16693;SDS011;39538;52.196;9.892;2022-09-03T14:08:34;65.53;;;63.57;;
16693;SDS011;39538;52.196;9.892;2022-09-03T14:11:19;66.03;;;63.77;;
16693;SDS011;39538;52.196;9.892;2022-09-03T14:13:55;70.23;;;68.13;;
16693;SDS011;39538;52.196;9.892;2022-09-03T14:16:41;68.50;;;66.63;;
16693;SDS011;39538;52.196;9.892;2022-09-03T14:19:16;68.13;;;66.43;;
16693;SDS011;39538;52.196;9.892;2022-09-03T14:21:49;69.20;;;67.40;;
16693;SDS011;39538;52.196;9.892;2022-09-03T14:24:19;73.77;;;71.70;;
16693;SDS011;39538;52.196;9.892;2022-09-03T14:26:51;65.97;;;64.17;;
16693;SDS011;39538;52.196;9.892;2022-09-03T14:29:22;71.90;;;69.37;;
16693;SDS011;39538;52.196;9.892;2022-09-03T14:32:04;66.10;;;64.33;;
16693;SDS011;39538;52.196;9.892;2022-09-03T14:34:45;67.73;;;65.43;;
16693;SDS011;39538;52.196;9.892;2022-09-03T14:37:31;67.70;;;65.90;;